createdAt,value
2017-11-15T00:00:44.404Z,24.30
2017-11-15T00:03:11.947Z,22.62
2017-11-15T00:05:39.527Z,22.40
2017-11-15T00:08:07.061Z,22.30
2017-11-15T00:10:34.642Z,22.13
2017-11-15T00:13:02.187Z,22.87
2017-11-15T00:15:29.763Z,22.23
2017-11-15T00:17:57.315Z,24.60
2017-11-15T00:20:24.895Z,22.25
2017-11-15T00:22:53.947Z,23.10
2017-11-15T00:25:21.520Z,21.87
2017-11-15T00:27:49.061Z,21.87
2017-11-15T00:30:16.642Z,22.33
2017-11-15T00:32:44.178Z,22.55
2017-11-15T00:35:11.860Z,22.85
2017-11-15T00:37:39.590Z,22.23
2017-11-15T00:40:07.943Z,21.45
2017-11-15T00:42:35.491Z,23.23
2017-11-15T00:45:03.070Z,22.58
2017-11-15T00:47:31.394Z,21.55
2017-11-15T00:49:58.989Z,20.60
2017-11-15T00:52:26.532Z,25.40
2017-11-15T00:54:54.358Z,22.27
2017-11-15T00:57:21.894Z,21.62
2017-11-15T00:59:50.233Z,23.20
2017-11-15T01:02:17.778Z,23.12
2017-11-15T01:04:45.352Z,24.85
2017-11-15T01:07:12.892Z,23.23
2017-11-15T01:09:40.471Z,25.42
2017-11-15T01:12:08.035Z,25.33
2017-11-15T01:14:35.629Z,23.95
2017-11-15T01:17:03.938Z,22.17
2017-11-15T01:19:31.515Z,25.55
2017-11-15T01:21:59.091Z,22.48
2017-11-15T01:24:26.670Z,24.40
2017-11-15T01:26:54.209Z,22.40
2017-11-15T01:29:21.793Z,22.30
2017-11-15T01:31:49.333Z,22.98
2017-11-15T01:34:16.915Z,22.13
2017-11-15T01:36:44.461Z,22.33
2017-11-15T01:39:12.037Z,23.42
2017-11-15T01:41:39.575Z,21.48
2017-11-15T01:44:07.149Z,21.87
2017-11-15T01:46:34.701Z,22.40
2017-11-15T01:49:02.280Z,19.25
2017-11-15T01:51:29.823Z,20.40
2017-11-15T01:53:57.402Z,20.40
2017-11-15T01:56:24.947Z,20.52
2017-11-15T01:58:52.587Z,19.27
2017-11-15T02:01:20.140Z,19.62
2017-11-15T02:03:47.728Z,19.02
2017-11-15T02:06:15.275Z,21.50
2017-11-15T02:08:42.868Z,19.75
2017-11-15T02:11:11.170Z,20.37
2017-11-15T02:13:38.753Z,19.35
2017-11-15T02:16:06.302Z,18.55
2017-11-15T02:18:33.878Z,18.50
2017-11-15T02:21:01.423Z,18.23
2017-11-15T02:23:29.004Z,20.27
2017-11-15T02:25:56.578Z,17.87
2017-11-15T02:28:24.158Z,18.27
2017-11-15T02:30:51.701Z,20.45
2017-11-15T02:33:19.286Z,16.90
2017-11-15T02:35:47.595Z,19.70
2017-11-15T02:38:15.135Z,19.98
2017-11-15T02:40:43.472Z,16.35
2017-11-15T02:43:11.012Z,17.80
2017-11-15T02:45:38.605Z,18.98
2017-11-15T02:48:06.150Z,17.85
2017-11-15T02:50:33.689Z,18.33
2017-11-15T02:53:01.264Z,18.92
2017-11-15T02:55:28.805Z,17.83
2017-11-15T02:57:56.345Z,16.50
2017-11-15T03:00:23.953Z,17.60
2017-11-15T03:02:51.501Z,17.70
2017-11-15T03:05:19.037Z,16.77
2017-11-15T03:07:46.600Z,16.73
2017-11-15T03:10:14.182Z,17.75
2017-11-15T03:12:41.716Z,17.83
2017-11-15T03:15:09.253Z,19.52
2017-11-15T03:17:36.828Z,18.00
2017-11-15T03:20:04.364Z,17.85
2017-11-15T03:22:31.952Z,17.33
2017-11-15T03:24:59.484Z,18.65
2017-11-15T03:27:27.789Z,18.20
2017-11-15T03:29:55.364Z,18.37
2017-11-15T03:32:22.926Z,17.85
2017-11-15T03:34:50.497Z,18.15
2017-11-15T03:37:18.070Z,18.65
2017-11-15T03:39:45.609Z,17.75
2017-11-15T03:42:13.159Z,17.75
2017-11-15T03:44:40.725Z,17.00
2017-11-15T03:47:08.297Z,18.23
2017-11-15T03:49:35.855Z,17.55
2017-11-15T03:52:03.438Z,16.83
2017-11-15T03:54:31.765Z,17.92
2017-11-15T03:56:59.359Z,15.85
2017-11-15T03:59:28.414Z,17.55
2017-11-15T04:01:55.953Z,16.80
2017-11-15T04:04:23.527Z,16.37
2017-11-15T04:06:51.066Z,16.92
2017-11-15T04:09:19.410Z,16.83
2017-11-15T04:11:46.980Z,17.98
2017-11-15T04:14:14.517Z,18.48
2017-11-15T04:16:42.091Z,18.58
2017-11-15T04:19:09.665Z,16.70
2017-11-15T04:21:37.207Z,16.30
2017-11-15T04:24:04.790Z,15.68
2017-11-15T04:26:33.133Z,16.35
2017-11-15T04:29:00.729Z,15.48
2017-11-15T04:31:29.030Z,16.55
2017-11-15T04:33:56.569Z,17.95
2017-11-15T04:36:24.965Z,16.92
2017-11-15T04:38:52.504Z,17.20
2017-11-15T04:41:20.824Z,16.90
2017-11-15T04:43:48.402Z,17.15
2017-11-15T04:46:15.943Z,16.52
2017-11-15T04:48:43.544Z,17.02
2017-11-15T04:51:11.119Z,17.35
2017-11-15T04:53:39.429Z,16.62
2017-11-15T04:56:06.998Z,17.50
2017-11-15T04:58:34.535Z,16.35
2017-11-15T05:01:02.117Z,17.10
2017-11-15T05:03:29.688Z,16.45
2017-11-15T05:05:57.279Z,17.08
2017-11-15T05:08:24.831Z,16.87
2017-11-15T05:10:52.384Z,17.60
2017-11-15T05:13:19.952Z,18.77
2017-11-15T05:15:47.490Z,19.50
2017-11-15T05:18:15.085Z,17.75
2017-11-15T05:20:42.621Z,17.12
2017-11-15T05:23:10.210Z,16.27
2017-11-15T05:25:37.749Z,16.52
2017-11-15T05:28:05.288Z,16.35
2017-11-15T05:30:32.857Z,14.90
2017-11-15T05:33:00.436Z,16.48
2017-11-15T05:35:28.740Z,15.73
2017-11-15T05:37:57.168Z,16.12
2017-11-15T05:40:24.707Z,16.70
2017-11-15T05:42:52.257Z,16.48
2017-11-15T05:45:19.972Z,16.42
2017-11-15T05:47:48.298Z,15.73
2017-11-15T05:50:15.832Z,15.27
2017-11-15T05:52:44.166Z,16.00
2017-11-15T05:55:11.711Z,14.75
2017-11-15T05:57:39.489Z,15.27
2017-11-15T06:00:07.030Z,16.37
2017-11-15T06:02:34.566Z,13.55
2017-11-15T06:05:02.145Z,15.23
2017-11-15T06:07:29.679Z,14.48
2017-11-15T06:09:58.170Z,15.48
2017-11-15T06:12:25.710Z,15.05
2017-11-15T06:14:53.175Z,14.77
2017-11-15T06:17:20.870Z,17.45
2017-11-15T06:19:48.432Z,15.65
2017-11-15T06:22:15.927Z,15.48
2017-11-15T06:24:43.532Z,15.02
2017-11-15T06:27:11.078Z,16.35
2017-11-15T06:29:38.649Z,16.10
2017-11-15T06:32:06.255Z,17.00
2017-11-15T06:34:33.800Z,15.85
2017-11-15T06:37:01.391Z,17.10
2017-11-15T06:39:28.943Z,15.75
2017-11-15T06:41:56.482Z,14.40
2017-11-15T06:44:24.098Z,15.35
2017-11-15T06:46:52.402Z,16.70
2017-11-15T06:49:19.980Z,16.37
2017-11-15T06:51:47.517Z,16.33
2017-11-15T06:54:15.100Z,14.70
2017-11-15T06:56:42.650Z,15.40
2017-11-15T06:59:10.230Z,15.05
2017-11-15T07:01:37.766Z,14.27
2017-11-15T07:04:05.341Z,16.33
2017-11-15T07:06:32.884Z,14.10
2017-11-15T07:09:00.463Z,15.98
2017-11-15T07:11:28.005Z,16.35
2017-11-15T07:13:55.584Z,15.20
2017-11-15T07:16:23.122Z,16.40
2017-11-15T07:18:50.785Z,15.68
2017-11-15T07:21:18.325Z,18.05
2017-11-15T07:23:45.902Z,18.40
2017-11-15T07:26:13.437Z,20.67
2017-11-15T07:28:41.008Z,19.02
2017-11-15T07:31:08.546Z,16.85
2017-11-15T07:33:36.884Z,17.73
2017-11-15T07:36:04.423Z,18.58
2017-11-15T07:38:31.996Z,17.67
2017-11-15T07:40:59.528Z,18.25
2017-11-15T07:43:27.105Z,19.20
2017-11-15T07:45:54.652Z,20.52
2017-11-15T07:48:22.235Z,20.88
2017-11-15T07:50:49.781Z,19.83
2017-11-15T07:53:17.358Z,22.62
2017-11-15T07:55:44.894Z,19.20
2017-11-15T07:58:12.467Z,20.58
2017-11-15T08:00:40.002Z,21.20
2017-11-15T08:03:07.582Z,19.80
2017-11-15T08:05:35.130Z,20.67
2017-11-15T08:08:02.710Z,22.73
2017-11-15T08:10:30.253Z,21.55
2017-11-15T08:12:57.824Z,22.62
2017-11-15T08:15:25.359Z,20.55
2017-11-15T08:17:52.939Z,21.30
2017-11-15T08:20:20.594Z,20.25
2017-11-15T08:22:48.170Z,24.10
2017-11-15T08:25:15.713Z,21.35
2017-11-15T08:27:43.289Z,22.17
2017-11-15T08:30:10.832Z,21.48
2017-11-15T08:32:38.412Z,22.27
2017-11-15T08:35:05.953Z,19.40
2017-11-15T08:37:33.620Z,23.12
2017-11-15T08:40:01.166Z,21.42
2017-11-15T08:42:28.742Z,23.52
2017-11-15T08:44:56.291Z,19.95
2017-11-15T08:47:23.872Z,19.55
2017-11-15T08:49:51.410Z,21.50
2017-11-15T08:52:18.985Z,21.08
2017-11-15T08:54:46.549Z,20.73
2017-11-15T08:57:14.131Z,24.23
2017-11-15T08:59:42.457Z,23.58
2017-11-15T09:02:10.038Z,22.50
2017-11-15T09:04:37.579Z,21.02
2017-11-15T09:07:05.152Z,22.25
2017-11-15T09:09:32.689Z,23.02
2017-11-15T09:12:00.297Z,24.95
2017-11-15T09:14:27.836Z,22.95
2017-11-15T09:16:55.421Z,22.05
2017-11-15T09:19:22.962Z,21.48
2017-11-15T09:21:50.533Z,22.58
2017-11-15T09:24:18.069Z,23.55
2017-11-15T09:26:45.642Z,21.02
2017-11-15T09:29:13.181Z,20.40
2017-11-15T09:31:40.766Z,20.60
2017-11-15T09:34:08.311Z,20.15
2017-11-15T09:36:35.864Z,21.55
2017-11-15T09:39:03.443Z,19.42
2017-11-15T09:41:30.987Z,21.65
2017-11-15T09:43:58.566Z,20.90
2017-11-15T09:46:26.118Z,20.67
2017-11-15T09:48:53.701Z,19.80
2017-11-15T09:51:21.239Z,20.23
2017-11-15T09:53:48.817Z,19.62
2017-11-15T09:56:16.354Z,21.52
2017-11-15T09:58:43.931Z,20.20
2017-11-15T10:01:11.495Z,19.87
2017-11-15T10:03:39.123Z,19.70
2017-11-15T10:06:06.663Z,21.50
2017-11-15T10:08:34.240Z,21.45
2017-11-15T10:11:01.799Z,20.67
2017-11-15T10:13:29.375Z,19.48
2017-11-15T10:15:56.915Z,18.45
2017-11-15T10:18:24.583Z,21.40
2017-11-15T10:20:52.121Z,24.52
2017-11-15T10:23:19.693Z,18.25
2017-11-15T10:25:47.235Z,18.15
2017-11-15T10:28:14.816Z,18.92
2017-11-15T10:30:42.352Z,17.58
2017-11-15T10:33:09.983Z,18.37
2017-11-15T10:35:38.304Z,17.55
2017-11-15T10:38:05.905Z,17.73
2017-11-15T10:40:33.489Z,17.25
2017-11-15T10:43:01.899Z,18.00
2017-11-15T10:45:29.498Z,17.20
2017-11-15T10:47:57.054Z,18.17
2017-11-15T10:50:24.593Z,17.55
2017-11-15T10:52:52.198Z,17.40
2017-11-15T10:55:19.739Z,16.80
2017-11-15T10:57:47.317Z,16.75
2017-11-15T11:00:14.858Z,16.30
2017-11-15T11:02:42.440Z,17.52
2017-11-15T11:05:09.982Z,16.12
2017-11-15T11:07:37.569Z,16.70
2017-11-15T11:10:05.878Z,16.40
2017-11-15T11:12:33.465Z,14.73
2017-11-15T11:15:01.005Z,13.38
2017-11-15T11:17:28.582Z,13.80
2017-11-15T11:19:56.116Z,14.87
2017-11-15T11:22:23.699Z,14.15
2017-11-15T11:24:51.248Z,13.43
2017-11-15T11:27:18.834Z,15.13
2017-11-15T11:29:46.380Z,15.55
2017-11-15T11:32:13.959Z,13.20
2017-11-15T11:34:41.494Z,14.80
2017-11-15T11:37:09.075Z,12.43
2017-11-15T11:39:36.613Z,15.25
2017-11-15T11:42:04.189Z,13.50
2017-11-15T11:44:31.728Z,13.77
2017-11-15T11:46:59.317Z,12.57
2017-11-15T11:49:26.853Z,12.88
2017-11-15T11:51:54.427Z,12.48
2017-11-15T11:54:21.961Z,13.35
2017-11-15T11:56:49.535Z,13.88
2017-11-15T11:59:17.074Z,13.77
2017-11-15T12:01:44.754Z,12.05
2017-11-15T12:04:12.294Z,12.65
2017-11-15T12:06:39.870Z,12.95
2017-11-15T12:09:07.409Z,14.35
2017-11-15T12:11:34.982Z,13.07
2017-11-15T12:14:02.522Z,13.98
2017-11-15T12:16:30.110Z,16.60
2017-11-15T12:18:57.665Z,14.10
2017-11-15T12:21:25.258Z,14.63
2017-11-15T12:23:52.807Z,16.12
2017-11-15T12:26:20.391Z,15.35
2017-11-15T12:28:47.930Z,16.83
2017-11-15T12:31:15.505Z,16.55
2017-11-15T12:33:43.053Z,14.75
2017-11-15T12:36:10.636Z,14.52
2017-11-15T12:38:38.182Z,17.12
2017-11-15T12:41:05.760Z,15.10
2017-11-15T12:43:34.065Z,16.33
2017-11-15T12:46:01.633Z,15.85
2017-11-15T12:48:29.172Z,18.12
2017-11-15T12:50:57.513Z,15.70
2017-11-15T12:53:25.053Z,18.33
2017-11-15T12:55:52.629Z,16.17
2017-11-15T12:58:20.201Z,16.65
2017-11-15T13:00:48.541Z,16.33
2017-11-15T13:03:16.869Z,16.85
2017-11-15T13:05:45.297Z,16.08
2017-11-15T13:08:12.842Z,15.60
2017-11-15T13:10:40.628Z,17.27
2017-11-15T13:13:08.504Z,16.75
2017-11-15T13:15:36.179Z,18.30
2017-11-15T13:18:03.729Z,17.67
2017-11-15T13:20:31.369Z,20.67
2017-11-15T13:22:58.919Z,20.42
2017-11-15T13:25:26.498Z,21.40
2017-11-15T13:27:54.034Z,20.65
2017-11-15T13:30:21.608Z,20.20
2017-11-15T13:32:49.144Z,21.85
2017-11-15T13:35:16.724Z,22.80
2017-11-15T13:37:44.262Z,19.27
2017-11-15T13:40:11.853Z,21.05
2017-11-15T13:42:39.390Z,22.58
2017-11-15T13:45:06.968Z,20.45
2017-11-15T13:47:34.531Z,20.25
2017-11-15T13:50:02.097Z,23.27
2017-11-15T13:52:29.630Z,23.27
2017-11-15T13:54:57.212Z,21.45
2017-11-15T13:57:24.750Z,24.00
2017-11-15T13:59:52.326Z,20.35
2017-11-15T14:02:19.873Z,20.02
2017-11-15T14:04:47.460Z,21.58
2017-11-15T14:07:15.010Z,21.65
2017-11-15T14:09:42.567Z,21.27
2017-11-15T14:12:10.141Z,22.48
2017-11-15T14:14:37.687Z,19.10
2017-11-15T14:17:05.267Z,21.23
2017-11-15T14:19:32.805Z,19.70
2017-11-15T14:22:00.379Z,19.67
2017-11-15T14:24:27.919Z,18.67
2017-11-15T14:26:55.505Z,19.98
2017-11-15T14:29:23.041Z,19.52
2017-11-15T14:31:50.622Z,20.83
2017-11-15T14:34:18.174Z,21.23
2017-11-15T14:36:45.753Z,21.23
2017-11-15T14:39:13.294Z,22.08
2017-11-15T14:41:40.881Z,20.88
2017-11-15T14:44:08.419Z,22.20
2017-11-15T14:46:35.994Z,19.23
2017-11-15T14:49:03.591Z,20.70
2017-11-15T14:51:31.186Z,18.00
2017-11-15T14:53:58.737Z,21.33
2017-11-15T14:56:26.316Z,21.17
2017-11-15T14:58:53.872Z,21.42
2017-11-15T15:01:21.446Z,22.20
2017-11-15T15:03:48.985Z,21.08
2017-11-15T15:06:16.561Z,23.20
2017-11-15T15:08:44.097Z,22.42
2017-11-15T15:11:11.672Z,22.05
2017-11-15T15:13:39.217Z,25.12
2017-11-15T15:16:06.790Z,20.83
2017-11-15T15:18:34.332Z,19.87
2017-11-15T15:21:01.910Z,22.95
2017-11-15T15:23:29.446Z,24.60
2017-11-15T15:25:57.027Z,23.77
2017-11-15T15:28:24.575Z,24.90
2017-11-15T15:30:52.156Z,22.05
2017-11-15T15:33:19.695Z,22.98
2017-11-15T15:35:47.269Z,22.23
2017-11-15T15:38:14.809Z,25.67
2017-11-15T15:40:42.382Z,24.25
2017-11-15T15:43:09.916Z,25.40
2017-11-15T15:45:37.500Z,23.80
2017-11-15T15:48:05.032Z,22.27
2017-11-15T15:50:32.609Z,20.65
2017-11-15T15:53:00.165Z,21.80
2017-11-15T15:55:27.779Z,21.42
2017-11-15T15:57:55.314Z,23.00
2017-11-15T16:00:22.902Z,24.27
2017-11-15T16:02:51.209Z,24.42
2017-11-15T16:05:18.788Z,21.52
2017-11-15T16:07:46.330Z,23.08
2017-11-15T16:10:13.903Z,21.23
2017-11-15T16:12:41.444Z,21.00
2017-11-15T16:15:09.018Z,20.45
2017-11-15T16:17:36.573Z,21.58
2017-11-15T16:20:04.157Z,22.95
2017-11-15T16:22:31.700Z,21.15
2017-11-15T16:24:59.287Z,20.25
2017-11-15T16:27:26.829Z,19.20
2017-11-15T16:29:54.424Z,21.05
2017-11-15T16:32:21.957Z,19.12
2017-11-15T16:34:49.569Z,19.92
2017-11-15T16:37:22.582Z,19.42
2017-11-15T16:39:50.169Z,20.12
2017-11-15T16:42:17.708Z,19.35
2017-11-15T16:44:45.249Z,18.30
2017-11-15T16:47:12.821Z,18.77
2017-11-15T16:49:40.397Z,18.52
2017-11-15T16:52:07.933Z,19.85
2017-11-15T16:54:35.612Z,19.60
2017-11-15T16:57:03.158Z,20.58
2017-11-15T16:59:30.708Z,23.52
2017-11-15T17:01:58.283Z,22.13
2017-11-15T17:04:25.819Z,19.80
2017-11-15T17:06:54.163Z,21.52
2017-11-15T17:09:21.703Z,20.17
2017-11-15T17:11:49.280Z,18.37
2017-11-15T17:14:16.822Z,18.20
2017-11-15T17:16:44.397Z,18.90
2017-11-15T17:19:12.725Z,20.00
2017-11-15T17:21:40.292Z,18.15
2017-11-15T17:24:07.828Z,18.90
2017-11-15T17:26:36.169Z,21.60
2017-11-15T17:29:03.708Z,20.95
2017-11-15T17:31:31.284Z,20.30
2017-11-15T17:33:58.822Z,20.92
2017-11-15T17:36:26.415Z,21.40
2017-11-15T17:38:54.000Z,18.85
2017-11-15T17:41:22.303Z,18.37
2017-11-15T17:43:49.836Z,18.70
2017-11-15T17:46:18.186Z,20.12
2017-11-15T17:48:45.726Z,20.10
2017-11-15T17:51:13.296Z,20.42
2017-11-15T17:53:40.839Z,20.55
2017-11-15T17:56:08.409Z,21.62
2017-11-15T17:58:35.947Z,23.05
2017-11-15T18:01:03.525Z,21.30
2017-11-15T18:03:31.058Z,22.70
2017-11-15T18:05:58.634Z,29.52
2017-11-15T18:08:26.183Z,18.70
2017-11-15T18:10:53.768Z,22.45
2017-11-15T18:13:21.299Z,22.50
2017-11-15T18:15:48.878Z,21.87
2017-11-15T18:18:16.416Z,20.55
2017-11-15T18:20:43.990Z,20.50
2017-11-15T18:23:11.530Z,25.73
2017-11-15T18:25:39.107Z,20.60
2017-11-15T18:28:06.649Z,20.52
2017-11-15T18:30:34.222Z,21.98
2017-11-15T18:33:01.762Z,21.35
2017-11-15T18:35:29.346Z,23.05
2017-11-15T18:37:56.892Z,26.58
2017-11-15T18:40:24.469Z,20.83
2017-11-15T18:42:52.006Z,20.15
2017-11-15T18:45:19.583Z,20.80
2017-11-15T18:47:47.121Z,21.52
2017-11-15T18:50:14.695Z,19.25
2017-11-15T18:52:42.227Z,19.25
2017-11-15T18:55:10.569Z,19.62
2017-11-15T18:57:38.113Z,18.95
2017-11-15T19:00:05.686Z,17.40
2017-11-15T19:02:33.234Z,17.90
2017-11-15T19:05:00.815Z,16.77
2017-11-15T19:07:28.354Z,18.77
2017-11-15T19:09:55.931Z,18.45
2017-11-15T19:12:23.474Z,17.60
2017-11-15T19:14:51.057Z,19.55
2017-11-15T19:17:18.601Z,19.60
2017-11-15T19:19:46.172Z,17.20
2017-11-15T19:22:13.709Z,18.12
2017-11-15T19:24:41.280Z,17.12
2017-11-15T19:27:08.821Z,19.77
2017-11-15T19:29:36.389Z,18.60
2017-11-15T19:32:03.931Z,15.98
2017-11-15T19:34:31.548Z,17.20
2017-11-15T19:36:59.860Z,16.98
2017-11-15T19:39:27.432Z,18.90
2017-11-15T19:41:54.970Z,18.30
2017-11-15T19:44:22.545Z,18.20
2017-11-15T19:46:50.082Z,18.42
2017-11-15T19:49:17.669Z,18.25
2017-11-15T19:51:45.208Z,17.80
2017-11-15T19:54:13.645Z,19.10
2017-11-15T19:56:41.187Z,18.48
2017-11-15T19:59:08.772Z,17.17
2017-11-15T20:01:36.316Z,18.15
2017-11-15T20:04:03.892Z,18.12
2017-11-15T20:06:31.433Z,16.08
2017-11-15T20:08:59.009Z,17.20
2017-11-15T20:11:26.550Z,18.40
2017-11-15T20:13:54.124Z,20.35
2017-11-15T20:16:21.663Z,20.20
2017-11-15T20:18:49.240Z,20.92
2017-11-15T20:21:16.822Z,20.80
2017-11-15T20:23:45.147Z,19.05
2017-11-15T20:26:12.719Z,16.95
2017-11-15T20:28:40.263Z,17.87
2017-11-15T20:31:07.860Z,17.80
2017-11-15T20:33:35.397Z,18.62
2017-11-15T20:36:02.973Z,19.00
2017-11-15T20:38:30.515Z,19.90
2017-11-15T20:40:58.094Z,18.25
2017-11-15T20:43:25.633Z,22.67
2017-11-15T20:45:53.214Z,19.00
2017-11-15T20:48:20.758Z,19.62
2017-11-15T20:50:48.336Z,18.25
2017-11-15T20:53:15.874Z,19.60
2017-11-15T20:55:43.455Z,19.23
2017-11-15T20:58:11.080Z,18.40
2017-11-15T21:00:38.661Z,18.52
2017-11-15T21:03:06.205Z,19.35
2017-11-15T21:05:33.784Z,15.02
2017-11-15T21:08:01.321Z,18.83
2017-11-15T21:10:28.902Z,23.30
2017-11-15T21:12:56.442Z,19.42
2017-11-15T21:15:24.023Z,19.62
2017-11-15T21:17:51.561Z,20.23
2017-11-15T21:20:19.156Z,19.20
2017-11-15T21:22:46.691Z,18.90
2017-11-15T21:25:14.276Z,20.30
2017-11-15T21:27:41.817Z,20.88
2017-11-15T21:30:09.386Z,18.80
2017-11-15T21:32:36.924Z,20.48
2017-11-15T21:35:04.511Z,19.08
2017-11-15T21:37:32.054Z,21.12
2017-11-15T21:39:59.630Z,19.08
2017-11-15T21:42:27.170Z,20.52
2017-11-15T21:44:54.753Z,19.92
2017-11-15T21:47:22.297Z,21.05
2017-11-15T21:49:49.901Z,18.75
2017-11-15T21:52:18.204Z,18.80
2017-11-15T21:54:45.773Z,19.87
2017-11-15T21:57:13.349Z,19.23
2017-11-15T21:59:40.889Z,20.67
2017-11-15T22:02:08.466Z,19.92
2017-11-15T22:04:36.013Z,21.52
2017-11-15T22:07:03.589Z,21.58
2017-11-15T22:09:31.129Z,19.48
2017-11-15T22:11:58.670Z,20.85
2017-11-15T22:14:26.245Z,20.50
2017-11-15T22:16:53.780Z,21.33
2017-11-15T22:19:21.379Z,20.37
2017-11-15T22:21:48.914Z,21.98
2017-11-15T22:24:16.490Z,19.15
2017-11-15T22:26:44.029Z,19.42
2017-11-15T22:29:12.379Z,21.48
2017-11-15T22:31:40.679Z,22.05
2017-11-15T22:34:08.255Z,19.20
2017-11-15T22:36:35.798Z,23.60
2017-11-15T22:39:03.378Z,21.95
2017-11-15T22:41:30.923Z,22.10
2017-11-15T22:43:58.507Z,22.13
2017-11-15T22:46:26.052Z,21.92
2017-11-15T22:48:53.624Z,21.00
2017-11-15T22:51:21.162Z,22.48
2017-11-15T22:53:48.738Z,22.70
2017-11-15T22:56:16.281Z,21.70
2017-11-15T22:58:43.862Z,24.60
2017-11-15T23:01:11.400Z,21.05
2017-11-15T23:03:38.983Z,21.80
2017-11-15T23:06:06.568Z,22.67
2017-11-15T23:08:34.113Z,22.17
2017-11-15T23:11:01.689Z,22.80
2017-11-15T23:13:29.237Z,23.55
2017-11-15T23:15:56.809Z,22.85
2017-11-15T23:18:24.357Z,22.37
2017-11-15T23:20:51.952Z,24.15
2017-11-15T23:23:20.252Z,22.90
2017-11-15T23:25:47.794Z,21.95
2017-11-15T23:28:16.136Z,19.48
2017-11-15T23:30:43.679Z,22.37
2017-11-15T23:33:11.253Z,22.48
2017-11-15T23:35:38.791Z,17.70
2017-11-15T23:38:06.372Z,21.15
2017-11-15T23:40:33.906Z,22.17
2017-11-15T23:43:01.483Z,23.42
2017-11-15T23:45:29.024Z,23.02
2017-11-15T23:47:56.602Z,19.87
2017-11-15T23:50:24.146Z,21.83
2017-11-15T23:52:51.725Z,22.20
2017-11-15T23:55:19.365Z,23.73
2017-11-15T23:57:46.949Z,22.05
